createdAt,value
2023-03-29T00:04:53.662Z,78.70
2023-03-29T00:09:58.522Z,78.60
2023-03-29T00:15:02.106Z,78.80
2023-03-29T00:20:08.867Z,78.70
2023-03-29T00:25:14.774Z,78.50
2023-03-29T00:30:18.468Z,78.70
2023-03-29T00:35:22.252Z,78.60
2023-03-29T00:40:27.782Z,78.60
2023-03-29T00:45:31.573Z,78.70
2023-03-29T00:50:38.175Z,78.50
2023-03-29T00:55:45.688Z,78.60
2023-03-29T01:00:53.914Z,78.70
2023-03-29T01:06:01.410Z,78.60
2023-03-29T01:11:09.872Z,78.60
2023-03-29T01:16:14.120Z,78.30
2023-03-29T01:21:23.704Z,78.30
2023-03-29T01:26:34.193Z,78.60
2023-03-29T01:31:42.806Z,78.60
2023-03-29T01:36:49.652Z,78.60
2023-03-29T01:42:00.990Z,78.60
2023-03-29T01:47:12.029Z,78.70
2023-03-29T01:52:18.702Z,78.60
2023-03-29T01:57:22.968Z,78.50
2023-03-29T02:02:28.604Z,78.70
2023-03-29T02:07:37.494Z,78.70
2023-03-29T02:12:41.004Z,78.60
2023-03-29T02:17:46.589Z,78.60
2023-03-29T02:22:56.314Z,79.00
2023-03-29T02:27:59.938Z,79.00
2023-03-29T02:33:08.099Z,79.00
2023-03-29T02:38:11.859Z,78.80
2023-03-29T02:43:16.083Z,78.80
2023-03-29T02:48:23.796Z,78.70
2023-03-29T02:53:34.548Z,78.70
2023-03-29T02:58:38.894Z,78.70
2023-03-29T03:03:45.391Z,79.00
2023-03-29T03:08:49.060Z,78.80
2023-03-29T03:13:52.619Z,78.60
2023-03-29T03:18:57.427Z,78.90
2023-03-29T03:24:00.949Z,78.80
2023-03-29T03:29:04.403Z,78.80
2023-03-29T03:34:09.762Z,78.50
2023-03-29T03:39:13.200Z,78.90
2023-03-29T03:44:16.760Z,78.90
2023-03-29T03:49:22.061Z,79.00
2023-03-29T03:54:25.699Z,78.60
2023-03-29T03:59:29.139Z,78.70
2023-03-29T04:04:34.387Z,78.70
2023-03-29T04:09:37.954Z,78.80
2023-03-29T04:14:41.403Z,78.80
2023-03-29T04:19:46.437Z,79.00
2023-03-29T04:24:49.909Z,78.90
2023-03-29T04:29:53.398Z,78.70
2023-03-29T04:34:58.285Z,78.80
2023-03-29T04:40:01.800Z,78.70
2023-03-29T04:45:07.104Z,78.80
2023-03-29T04:50:14.092Z,78.80
2023-03-29T04:55:17.782Z,78.80
2023-03-29T05:00:27.426Z,78.70
2023-03-29T05:05:32.384Z,78.70
2023-03-29T05:10:36.088Z,79.00
2023-03-29T05:15:41.210Z,78.70
2023-03-29T05:20:46.964Z,78.80
2023-03-29T05:25:50.488Z,79.00
2023-03-29T05:31:01.523Z,78.70
2023-03-29T05:36:08.309Z,78.70
2023-03-29T05:41:11.949Z,79.00
2023-03-29T05:46:15.736Z,78.60
2023-03-29T05:51:24.484Z,78.60
2023-03-29T05:56:28.074Z,78.70
2023-03-29T06:01:32.556Z,78.80
2023-03-29T06:06:37.455Z,78.80
2023-03-29T06:11:40.955Z,78.60
2023-03-29T06:16:45.278Z,78.60
2023-03-29T06:21:50.225Z,78.60
2023-03-29T06:26:53.926Z,78.60
2023-03-29T06:31:57.532Z,78.50
2023-03-29T06:37:02.401Z,78.70
2023-03-29T06:42:20.010Z,78.90
2023-03-29T06:47:30.935Z,78.60
2023-03-29T06:52:37.099Z,78.90
2023-03-29T06:57:40.774Z,78.80
2023-03-29T07:02:44.295Z,78.80
2023-03-29T07:07:57.101Z,78.40
2023-03-29T07:13:01.082Z,78.70
2023-03-29T07:18:05.171Z,78.60
2023-03-29T07:23:10.862Z,78.70
2023-03-29T07:28:14.313Z,78.70
2023-03-29T07:33:17.982Z,78.60
2023-03-29T07:38:23.033Z,78.80
2023-03-29T07:43:26.624Z,79.00
2023-03-29T07:48:30.549Z,78.90
2023-03-29T07:53:35.406Z,78.90
2023-03-29T07:58:39.067Z,79.10
2023-03-29T08:03:42.647Z,78.90
2023-03-29T08:08:47.564Z,79.00
2023-03-29T08:13:51.726Z,79.20
2023-03-29T08:18:55.351Z,78.90
2023-03-29T08:24:00.315Z,79.00
2023-03-29T08:29:04.228Z,79.30
2023-03-29T08:34:07.723Z,79.20
2023-03-29T08:39:12.579Z,79.00
2023-03-29T08:44:24.542Z,79.30
2023-03-29T08:49:28.627Z,79.20
2023-03-29T08:54:36.305Z,79.30
2023-03-29T08:59:40.780Z,79.20
2023-03-29T09:04:44.419Z,79.40
2023-03-29T09:09:49.288Z,79.40
2023-03-29T09:15:08.762Z,79.10
2023-03-29T09:20:23.700Z,78.90
2023-03-29T09:25:38.341Z,79.30
2023-03-29T09:30:53.263Z,79.00
2023-03-29T09:36:03.377Z,79.00
2023-03-29T09:41:19.222Z,79.10
2023-03-29T09:46:28.492Z,79.20
2023-03-29T09:51:33.577Z,79.00
2023-03-29T09:56:38.518Z,79.20
2023-03-29T10:01:45.573Z,79.30
2023-03-29T10:06:51.090Z,79.30
2023-03-29T10:11:58.020Z,79.50
2023-03-29T10:17:01.694Z,79.20
2023-03-29T10:22:07.810Z,79.30
2023-03-29T10:27:13.155Z,79.10
2023-03-29T10:32:18.620Z,79.20
2023-03-29T10:37:23.590Z,78.90
2023-03-29T10:42:29.175Z,78.70
2023-03-29T10:47:34.544Z,78.80
2023-03-29T10:52:38.412Z,79.00
2023-03-29T10:57:54.389Z,78.30
2023-03-29T11:03:25.285Z,78.60
2023-03-29T11:08:49.095Z,77.70
2023-03-29T11:14:01.740Z,78.70
2023-03-29T11:19:20.430Z,78.70
2023-03-29T11:24:43.046Z,77.80
2023-03-29T11:29:59.564Z,78.50
2023-03-29T11:35:11.027Z,78.70
2023-03-29T11:40:26.422Z,78.80
2023-03-29T11:45:34.453Z,78.20
2023-03-29T11:50:43.947Z,78.00
2023-03-29T11:55:48.385Z,77.70
2023-03-29T12:00:57.174Z,77.50
2023-03-29T12:06:05.128Z,77.10
2023-03-29T12:11:13.720Z,77.50
2023-03-29T12:16:22.223Z,77.60
2023-03-29T12:21:28.469Z,77.10
2023-03-29T12:26:47.752Z,77.60
2023-03-29T12:31:58.496Z,77.50
2023-03-29T12:37:23.582Z,77.80
2023-03-29T12:42:27.404Z,77.70
2023-03-29T12:47:38.455Z,77.90
2023-03-29T12:52:44.020Z,77.20
2023-03-29T12:58:02.667Z,77.80
2023-03-29T13:03:24.198Z,77.30
2023-03-29T13:08:29.653Z,77.20
2023-03-29T13:13:36.463Z,77.10
2023-03-29T13:18:52.056Z,77.40
2023-03-29T13:24:00.382Z,77.60
2023-03-29T13:29:19.000Z,77.50
2023-03-29T13:34:34.057Z,77.70
2023-03-29T13:39:37.938Z,77.80
2023-03-29T13:44:45.749Z,77.90
2023-03-29T13:49:54.537Z,77.90
2023-03-29T13:55:01.982Z,77.60
2023-03-29T14:00:12.041Z,77.70
2023-03-29T14:05:18.857Z,77.80
2023-03-29T14:10:26.181Z,77.60
2023-03-29T14:15:42.903Z,77.00
2023-03-29T14:20:49.303Z,76.80
2023-03-29T14:25:53.055Z,76.30
2023-03-29T14:30:56.941Z,76.10
2023-03-29T14:36:04.018Z,75.30
2023-03-29T14:41:07.879Z,76.50
2023-03-29T14:46:11.809Z,76.50
2023-03-29T14:51:16.895Z,76.30
2023-03-29T14:56:24.331Z,76.50
2023-03-29T15:01:28.102Z,76.40
2023-03-29T15:06:34.249Z,75.90
2023-03-29T15:11:39.998Z,76.30
2023-03-29T15:16:45.814Z,76.30
2023-03-29T15:21:51.384Z,76.60
2023-03-29T15:27:03.728Z,76.80
2023-03-29T15:32:07.572Z,76.30
2023-03-29T15:37:14.060Z,76.10
2023-03-29T15:42:17.496Z,75.40
2023-03-29T15:47:21.110Z,76.00
2023-03-29T15:52:26.111Z,74.60
2023-03-29T15:57:29.815Z,75.40
2023-03-29T16:02:33.532Z,75.10
2023-03-29T16:07:38.453Z,74.30
2023-03-29T16:12:41.939Z,74.40
2023-03-29T16:17:45.541Z,74.00
2023-03-29T16:22:51.576Z,74.40
2023-03-29T16:27:55.751Z,74.60
2023-03-29T16:32:59.283Z,74.00
2023-03-29T16:38:04.457Z,74.50
2023-03-29T16:43:08.012Z,74.40
2023-03-29T16:48:13.707Z,75.20
2023-03-29T16:53:20.193Z,74.90
2023-03-29T16:58:23.765Z,75.40
2023-03-29T17:03:27.983Z,75.30
2023-03-29T17:08:33.138Z,75.40
2023-03-29T17:13:37.624Z,75.60
2023-03-29T17:18:41.042Z,75.60
2023-03-29T17:23:45.948Z,75.30
2023-03-29T17:28:49.636Z,75.60
2023-03-29T17:33:53.136Z,75.50
2023-03-29T17:39:02.422Z,75.60
2023-03-29T17:44:07.413Z,75.80
2023-03-29T17:49:10.914Z,76.00
2023-03-29T17:54:16.500Z,75.80
2023-03-29T17:59:20.050Z,75.70
2023-03-29T18:04:23.551Z,75.90
2023-03-29T18:09:30.779Z,76.20
2023-03-29T18:14:34.968Z,76.40
2023-03-29T18:19:38.431Z,76.20
2023-03-29T18:24:43.640Z,76.40
2023-03-29T18:29:47.145Z,76.50
2023-03-29T18:34:50.724Z,76.50
2023-03-29T18:39:55.860Z,77.00
2023-03-29T18:44:59.501Z,77.20
2023-03-29T18:50:03.016Z,77.10
2023-03-29T18:55:10.396Z,77.00
2023-03-29T19:00:14.321Z,77.20
2023-03-29T19:05:17.882Z,77.40
2023-03-29T19:10:24.751Z,77.60
2023-03-29T19:15:28.268Z,77.50
2023-03-29T19:20:32.051Z,77.30
2023-03-29T19:25:37.093Z,77.60
2023-03-29T19:30:40.491Z,77.80
2023-03-29T19:35:44.108Z,77.80
2023-03-29T19:40:50.222Z,77.70
2023-03-29T19:45:53.722Z,77.80
2023-03-29T19:51:02.884Z,77.70
2023-03-29T19:56:11.086Z,78.00
2023-03-29T20:01:15.776Z,77.90
2023-03-29T20:06:20.289Z,77.80
2023-03-29T20:11:25.162Z,78.00
2023-03-29T20:16:30.000Z,78.00
2023-03-29T20:21:34.441Z,78.30
2023-03-29T20:26:39.383Z,78.50
2023-03-29T20:31:43.008Z,78.20
2023-03-29T20:36:47.020Z,78.30
2023-03-29T20:41:52.259Z,78.70
2023-03-29T20:47:03.983Z,78.40
2023-03-29T20:52:09.284Z,78.60
2023-03-29T20:57:16.253Z,79.20
2023-03-29T21:02:22.333Z,78.80
2023-03-29T21:07:26.820Z,78.70
2023-03-29T21:12:31.821Z,78.60
2023-03-29T21:17:35.353Z,78.70
2023-03-29T21:22:39.208Z,79.10
2023-03-29T21:27:44.382Z,79.00
2023-03-29T21:32:47.935Z,79.00
2023-03-29T21:37:51.458Z,78.90
2023-03-29T21:42:56.469Z,79.20
2023-03-29T21:47:59.944Z,79.10
2023-03-29T21:53:03.505Z,78.80
2023-03-29T21:58:08.435Z,79.00
2023-03-29T22:03:12.011Z,79.10
2023-03-29T22:08:15.557Z,79.30
2023-03-29T22:13:20.460Z,78.90
2023-03-29T22:18:23.897Z,79.10
2023-03-29T22:23:27.863Z,79.10
2023-03-29T22:28:32.703Z,79.30
2023-03-29T22:33:37.125Z,79.40
2023-03-29T22:38:40.781Z,79.40
2023-03-29T22:43:46.116Z,79.50
2023-03-29T22:48:49.999Z,79.40
2023-03-29T22:53:53.482Z,79.60
2023-03-29T22:58:58.354Z,79.50
2023-03-29T23:04:01.937Z,79.40
2023-03-29T23:09:05.746Z,79.50
2023-03-29T23:14:10.675Z,79.40
2023-03-29T23:19:14.158Z,79.60
2023-03-29T23:24:19.240Z,79.40
2023-03-29T23:29:26.450Z,79.50
2023-03-29T23:34:29.969Z,79.50
2023-03-29T23:39:33.952Z,79.40
2023-03-29T23:44:38.926Z,79.60
2023-03-29T23:49:45.516Z,79.60
2023-03-29T23:54:49.074Z,79.30
2023-03-29T23:59:56.016Z,79.70
